createdAt,value
2023-05-19T00:00:37.506Z,16.13
2023-05-19T00:03:05.138Z,16.18
2023-05-19T00:05:34.505Z,16.16
2023-05-19T00:08:03.568Z,16.15
2023-05-19T00:10:39.035Z,15.90
2023-05-19T00:13:05.731Z,16.09
2023-05-19T00:15:40.525Z,16.09
2023-05-19T00:18:09.033Z,16.09
2023-05-19T00:20:37.784Z,16.11
2023-05-19T00:23:05.526Z,16.10
2023-05-19T00:25:32.063Z,16.09
2023-05-19T00:28:00.815Z,16.05
2023-05-19T00:30:27.649Z,16.05
2023-05-19T00:32:57.544Z,16.03
2023-05-19T00:35:24.578Z,16.05
2023-05-19T00:38:04.952Z,16.03
2023-05-19T00:40:35.446Z,16.02
2023-05-19T00:43:08.643Z,16.02
2023-05-19T00:45:35.377Z,16.03
2023-05-19T00:48:14.685Z,15.73
2023-05-19T00:50:42.991Z,16.14
2023-05-19T00:53:13.450Z,16.13
2023-05-19T00:55:48.599Z,16.17
2023-05-19T00:58:15.535Z,16.22
2023-05-19T01:00:43.468Z,16.15
2023-05-19T01:03:13.828Z,16.09
2023-05-19T01:05:47.681Z,16.04
2023-05-19T01:08:14.638Z,16.02
2023-05-19T01:10:41.263Z,16.05
2023-05-19T01:13:08.634Z,16.01
2023-05-19T01:15:40.328Z,16.02
2023-05-19T01:18:15.164Z,16.03
2023-05-19T01:20:46.369Z,16.02
2023-05-19T01:23:21.625Z,16.05
2023-05-19T01:26:07.166Z,15.71
2023-05-19T01:28:53.631Z,15.99
2023-05-19T01:31:23.946Z,15.96
2023-05-19T01:33:52.281Z,15.93
2023-05-19T01:36:24.064Z,15.90
2023-05-19T01:38:54.171Z,15.58
2023-05-19T01:41:21.976Z,15.87
2023-05-19T01:43:51.873Z,15.25
2023-05-19T01:46:19.042Z,15.85
2023-05-19T01:48:45.802Z,15.86
2023-05-19T01:51:12.394Z,15.82
2023-05-19T01:53:39.069Z,15.85
2023-05-19T01:56:09.423Z,15.90
2023-05-19T01:58:48.231Z,15.90
2023-05-19T02:01:22.047Z,15.89
2023-05-19T02:03:51.273Z,16.07
2023-05-19T02:06:36.816Z,15.67
2023-05-19T02:09:14.970Z,15.97
2023-05-19T02:11:52.211Z,15.91
2023-05-19T02:14:36.027Z,15.92
2023-05-19T02:17:04.567Z,15.93
2023-05-19T02:19:35.503Z,15.56
2023-05-19T02:22:02.144Z,15.90
2023-05-19T02:24:32.752Z,15.88
2023-05-19T02:27:00.008Z,15.89
2023-05-19T02:29:26.872Z,15.96
2023-05-19T02:31:53.880Z,15.92
2023-05-19T02:34:21.239Z,15.91
2023-05-19T02:36:50.133Z,15.84
2023-05-19T02:39:26.353Z,15.82
2023-05-19T02:41:54.743Z,15.83
2023-05-19T02:44:24.993Z,15.80
2023-05-19T02:46:54.547Z,15.74
2023-05-19T02:49:21.116Z,15.74
2023-05-19T02:51:48.382Z,15.76
2023-05-19T02:54:15.067Z,15.77
2023-05-19T02:56:41.542Z,15.84
2023-05-19T02:59:08.138Z,15.86
2023-05-19T03:01:34.703Z,15.56
2023-05-19T03:04:01.433Z,15.82
2023-05-19T03:06:28.458Z,15.81
2023-05-19T03:08:54.946Z,15.83
2023-05-19T03:11:23.338Z,15.81
2023-05-19T03:13:49.871Z,15.78
2023-05-19T03:16:16.477Z,15.73
2023-05-19T03:18:43.157Z,15.64
2023-05-19T03:21:09.667Z,15.60
2023-05-19T03:23:40.375Z,15.28
2023-05-19T03:26:06.930Z,15.62
2023-05-19T03:28:33.474Z,15.64
2023-05-19T03:31:00.038Z,15.66
2023-05-19T03:33:29.915Z,15.59
2023-05-19T03:35:57.193Z,15.54
2023-05-19T03:38:23.876Z,15.51
2023-05-19T03:40:53.351Z,15.54
2023-05-19T03:43:20.612Z,15.54
2023-05-19T03:45:47.307Z,15.53
2023-05-19T03:48:16.026Z,15.53
2023-05-19T03:50:46.968Z,15.65
2023-05-19T03:53:14.082Z,15.66
2023-05-19T03:55:44.585Z,15.59
2023-05-19T03:58:12.307Z,15.54
2023-05-19T04:00:38.865Z,15.49
2023-05-19T04:03:05.441Z,15.51
2023-05-19T04:05:32.040Z,15.56
2023-05-19T04:07:58.674Z,15.62
2023-05-19T04:10:35.336Z,15.13
2023-05-19T04:13:02.516Z,15.59
2023-05-19T04:15:33.075Z,15.60
2023-05-19T04:18:03.661Z,15.28
2023-05-19T04:20:30.323Z,15.56
2023-05-19T04:22:57.128Z,15.59
2023-05-19T04:25:25.378Z,15.58
2023-05-19T04:27:53.049Z,15.53
2023-05-19T04:30:22.689Z,15.55
2023-05-19T04:32:52.306Z,15.55
2023-05-19T04:35:19.663Z,15.59
2023-05-19T04:37:46.350Z,15.55
2023-05-19T04:40:13.296Z,15.50
2023-05-19T04:42:43.222Z,15.52
2023-05-19T04:45:10.062Z,15.51
2023-05-19T04:47:39.793Z,15.21
2023-05-19T04:50:09.699Z,15.43
2023-05-19T04:52:36.422Z,15.43
2023-05-19T04:55:09.186Z,15.44
2023-05-19T04:57:41.292Z,15.46
2023-05-19T05:00:09.643Z,15.46
2023-05-19T05:02:36.358Z,15.45
2023-05-19T05:05:03.253Z,15.44
2023-05-19T05:07:32.729Z,15.44
2023-05-19T05:10:08.529Z,15.37
2023-05-19T05:12:35.973Z,15.46
2023-05-19T05:15:02.766Z,15.43
2023-05-19T05:17:29.424Z,15.43
2023-05-19T05:20:05.083Z,15.45
2023-05-19T05:22:32.199Z,15.47
2023-05-19T05:24:58.908Z,15.49
2023-05-19T05:27:26.190Z,15.49
2023-05-19T05:29:53.020Z,15.49
2023-05-19T05:32:19.594Z,15.52
2023-05-19T05:34:46.192Z,15.52
2023-05-19T05:37:15.341Z,15.54
2023-05-19T05:39:42.022Z,15.55
2023-05-19T05:42:14.089Z,15.58
2023-05-19T05:44:41.319Z,15.67
2023-05-19T05:47:12.103Z,15.73
2023-05-19T05:49:40.294Z,15.73
2023-05-19T05:52:08.172Z,15.64
2023-05-19T05:54:34.888Z,15.70
2023-05-19T05:57:02.739Z,15.72
2023-05-19T05:59:29.328Z,15.72
2023-05-19T06:01:58.561Z,15.55
2023-05-19T06:04:25.896Z,15.81
2023-05-19T06:06:52.808Z,15.74
2023-05-19T06:09:21.349Z,15.69
2023-05-19T06:11:50.209Z,15.70
2023-05-19T06:14:21.775Z,15.66
2023-05-19T06:16:48.398Z,15.63
2023-05-19T06:19:16.942Z,15.63
2023-05-19T06:21:47.918Z,15.60
2023-05-19T06:24:15.861Z,15.66
2023-05-19T06:26:44.864Z,15.72
2023-05-19T06:29:11.517Z,15.71
2023-05-19T06:31:40.638Z,15.74
2023-05-19T06:34:18.270Z,15.75
2023-05-19T06:36:45.353Z,15.76
2023-05-19T06:39:18.980Z,15.73
2023-05-19T06:41:45.772Z,15.67
2023-05-19T06:44:12.298Z,15.79
2023-05-19T06:46:42.046Z,15.76
2023-05-19T06:49:16.047Z,15.69
2023-05-19T06:51:50.681Z,15.39
2023-05-19T06:54:17.245Z,15.76
2023-05-19T06:56:43.869Z,15.71
2023-05-19T06:59:11.003Z,15.71
2023-05-19T07:01:37.981Z,15.68
2023-05-19T07:04:04.835Z,15.61
2023-05-19T07:06:31.636Z,15.59
2023-05-19T07:08:58.401Z,15.65
2023-05-19T07:11:26.472Z,15.72
2023-05-19T07:14:00.064Z,15.68
2023-05-19T07:16:32.001Z,15.68
2023-05-19T07:18:58.842Z,15.59
2023-05-19T07:21:25.613Z,15.54
2023-05-19T07:23:52.178Z,15.55
2023-05-19T07:26:19.077Z,15.65
2023-05-19T07:28:45.744Z,15.66
2023-05-19T07:31:14.322Z,15.63
2023-05-19T07:33:41.006Z,15.67
2023-05-19T07:36:07.593Z,15.62
2023-05-19T07:38:35.030Z,15.60
2023-05-19T07:41:02.136Z,15.60
2023-05-19T07:43:29.012Z,15.63
2023-05-19T07:45:56.598Z,15.69
2023-05-19T07:48:25.789Z,15.71
2023-05-19T07:50:54.988Z,15.69
2023-05-19T07:53:22.833Z,15.64
2023-05-19T07:55:49.474Z,15.68
2023-05-19T07:58:16.281Z,15.69
2023-05-19T08:00:46.420Z,15.68
2023-05-19T08:03:19.444Z,15.62
2023-05-19T08:05:46.463Z,15.64
2023-05-19T08:08:16.692Z,15.59
2023-05-19T08:10:45.398Z,15.63
2023-05-19T08:13:15.417Z,15.71
2023-05-19T08:15:46.407Z,15.67
2023-05-19T08:18:13.250Z,15.68
2023-05-19T08:20:39.849Z,15.63
2023-05-19T08:23:06.592Z,15.68
2023-05-19T08:25:33.287Z,15.70
2023-05-19T08:28:01.306Z,15.71
2023-05-19T08:30:28.201Z,15.72
2023-05-19T08:32:58.185Z,15.41
2023-05-19T08:35:24.968Z,15.75
2023-05-19T08:37:52.868Z,15.75
2023-05-19T08:40:20.544Z,15.73
2023-05-19T08:42:47.279Z,15.75
2023-05-19T08:45:17.679Z,15.71
2023-05-19T08:47:46.400Z,15.65
2023-05-19T08:50:17.501Z,15.67
2023-05-19T08:52:49.527Z,15.64
2023-05-19T08:55:21.866Z,15.75
2023-05-19T08:57:49.943Z,15.77
2023-05-19T09:00:17.116Z,15.73
2023-05-19T09:02:55.087Z,15.86
2023-05-19T09:05:31.070Z,15.76
2023-05-19T09:07:57.932Z,15.75
2023-05-19T09:10:27.160Z,15.76
2023-05-19T09:12:55.098Z,15.83
2023-05-19T09:15:26.036Z,15.50
2023-05-19T09:18:03.478Z,15.87
2023-05-19T09:20:32.867Z,15.61
2023-05-19T09:22:59.904Z,15.86
2023-05-19T09:25:26.875Z,15.82
2023-05-19T09:27:54.628Z,15.83
2023-05-19T09:30:21.483Z,15.82
2023-05-19T09:32:50.797Z,15.83
2023-05-19T09:35:17.672Z,15.79
2023-05-19T09:37:44.591Z,15.81
2023-05-19T09:40:15.848Z,16.06
2023-05-19T09:42:45.510Z,15.90
2023-05-19T09:45:16.168Z,15.58
2023-05-19T09:47:43.818Z,15.91
2023-05-19T09:50:12.165Z,16.06
2023-05-19T09:52:39.434Z,15.90
2023-05-19T09:55:09.507Z,15.97
2023-05-19T09:57:37.476Z,15.89
2023-05-19T10:00:19.888Z,15.79
2023-05-19T10:02:57.858Z,15.49
2023-05-19T10:05:30.085Z,15.73
2023-05-19T10:08:19.483Z,15.82
2023-05-19T10:10:47.720Z,15.83
2023-05-19T10:13:44.891Z,15.86
2023-05-19T10:16:15.706Z,16.00
2023-05-19T10:18:42.630Z,15.96
2023-05-19T10:21:09.897Z,16.03
2023-05-19T10:23:36.811Z,16.00
2023-05-19T10:26:07.244Z,15.70
2023-05-19T10:28:39.086Z,16.06
2023-05-19T10:31:08.059Z,16.37
2023-05-19T10:33:41.145Z,16.18
2023-05-19T10:36:35.668Z,16.10
2023-05-19T10:39:06.767Z,16.06
2023-05-19T10:41:36.418Z,16.03
2023-05-19T10:44:12.524Z,15.57
2023-05-19T10:46:40.206Z,16.12
2023-05-19T10:49:18.174Z,16.07
2023-05-19T10:51:45.577Z,16.15
2023-05-19T10:54:16.188Z,16.15
2023-05-19T10:56:48.915Z,16.13
2023-05-19T10:59:32.392Z,16.20
2023-05-19T11:02:03.876Z,16.34
2023-05-19T11:04:51.837Z,16.37
2023-05-19T11:07:20.218Z,16.16
2023-05-19T11:09:51.624Z,16.15
2023-05-19T11:12:24.759Z,16.21
2023-05-19T11:14:55.983Z,16.16
2023-05-19T11:17:24.882Z,16.21
2023-05-19T11:19:52.871Z,16.25
2023-05-19T11:22:22.709Z,16.30
2023-05-19T11:24:50.677Z,16.32
2023-05-19T11:27:21.602Z,16.22
2023-05-19T11:29:49.866Z,16.20
2023-05-19T11:32:18.458Z,16.19
2023-05-19T11:34:47.067Z,16.16
2023-05-19T11:37:13.768Z,16.18
2023-05-19T11:39:42.577Z,16.31
2023-05-19T11:42:13.552Z,16.37
2023-05-19T11:44:44.810Z,16.39
2023-05-19T11:47:14.036Z,15.95
2023-05-19T11:49:48.295Z,16.25
2023-05-19T11:52:15.887Z,16.31
2023-05-19T11:54:42.525Z,16.24
2023-05-19T11:57:20.229Z,16.25
2023-05-19T11:59:51.873Z,16.30
2023-05-19T12:02:27.070Z,16.26
2023-05-19T12:04:54.365Z,16.30
2023-05-19T12:07:27.758Z,16.29
2023-05-19T12:09:55.574Z,16.35
2023-05-19T12:12:22.832Z,16.40
2023-05-19T12:14:51.408Z,16.64
2023-05-19T12:17:19.855Z,16.65
2023-05-19T12:19:50.240Z,16.58
2023-05-19T12:22:18.161Z,16.12
2023-05-19T12:24:45.408Z,16.56
2023-05-19T12:27:15.462Z,16.64
2023-05-19T12:29:42.145Z,16.78
2023-05-19T12:32:09.869Z,16.67
2023-05-19T12:34:37.442Z,16.75
2023-05-19T12:37:04.588Z,16.67
2023-05-19T12:39:56.774Z,16.80
2023-05-19T12:42:24.373Z,16.81
2023-05-19T12:44:52.880Z,16.73
2023-05-19T12:47:20.265Z,16.61
2023-05-19T12:49:59.557Z,16.60
2023-05-19T12:52:27.922Z,16.54
2023-05-19T12:55:01.799Z,16.41
2023-05-19T12:57:32.090Z,16.47
2023-05-19T13:00:07.197Z,16.41
2023-05-19T13:02:37.526Z,16.55
2023-05-19T13:05:05.035Z,16.72
2023-05-19T13:07:35.379Z,16.61
2023-05-19T13:10:04.297Z,16.59
2023-05-19T13:12:30.785Z,16.56
2023-05-19T13:15:01.381Z,16.60
2023-05-19T13:17:32.739Z,16.60
2023-05-19T13:20:02.476Z,16.58
2023-05-19T13:22:28.960Z,16.61
2023-05-19T13:24:58.849Z,16.63
2023-05-19T13:27:28.748Z,16.70
2023-05-19T13:29:55.299Z,16.81
2023-05-19T13:32:25.984Z,16.71
2023-05-19T13:34:52.673Z,16.75
2023-05-19T13:37:21.160Z,16.90
2023-05-19T13:39:48.956Z,16.67
2023-05-19T13:42:17.437Z,16.96
2023-05-19T13:44:51.017Z,17.03
2023-05-19T13:47:17.624Z,17.28
2023-05-19T13:49:47.227Z,17.14
2023-05-19T13:52:15.020Z,17.23
2023-05-19T13:54:41.947Z,17.22
2023-05-19T13:57:11.720Z,17.27
2023-05-19T13:59:45.894Z,17.28
2023-05-19T14:02:25.903Z,17.11
2023-05-19T14:04:52.542Z,17.44
2023-05-19T14:07:19.685Z,17.28
2023-05-19T14:09:46.545Z,17.18
2023-05-19T14:12:14.081Z,17.19
2023-05-19T14:14:40.802Z,17.17
2023-05-19T14:17:07.416Z,17.26
2023-05-19T14:19:34.851Z,17.24
2023-05-19T14:22:01.433Z,17.11
2023-05-19T14:24:27.980Z,17.13
2023-05-19T14:26:56.964Z,17.32
2023-05-19T14:29:23.915Z,17.32
2023-05-19T14:31:50.744Z,17.41
2023-05-19T14:34:22.257Z,17.41
2023-05-19T14:36:50.517Z,17.32
2023-05-19T14:39:20.706Z,16.98
2023-05-19T14:41:49.590Z,17.24
2023-05-19T14:44:16.231Z,17.36
2023-05-19T14:46:43.085Z,17.27
2023-05-19T14:49:10.490Z,17.28
2023-05-19T14:51:39.334Z,17.39
2023-05-19T14:54:06.078Z,17.27
2023-05-19T14:56:48.889Z,17.22
2023-05-19T14:59:15.734Z,17.22
2023-05-19T15:01:42.869Z,17.23
2023-05-19T15:04:12.135Z,17.29
2023-05-19T15:06:38.852Z,17.41
2023-05-19T15:09:05.649Z,17.34
2023-05-19T15:11:33.249Z,17.32
2023-05-19T15:14:00.103Z,17.26
2023-05-19T15:16:26.746Z,17.29
2023-05-19T15:18:53.540Z,17.25
2023-05-19T15:21:21.228Z,17.30
2023-05-19T15:23:47.886Z,17.10
2023-05-19T15:26:16.958Z,17.06
2023-05-19T15:28:43.487Z,17.05
2023-05-19T15:31:10.164Z,17.04
2023-05-19T15:33:38.388Z,16.97
2023-05-19T15:36:05.263Z,17.18
2023-05-19T15:38:35.184Z,17.22
2023-05-19T15:41:05.972Z,17.32
2023-05-19T15:43:32.753Z,17.30
2023-05-19T15:45:59.421Z,17.29
2023-05-19T15:48:29.081Z,17.33
2023-05-19T15:50:58.258Z,17.46
2023-05-19T15:53:25.965Z,17.40
2023-05-19T15:55:52.768Z,17.45
2023-05-19T15:58:28.344Z,17.37
2023-05-19T16:00:55.080Z,17.44
2023-05-19T16:03:27.087Z,17.41
2023-05-19T16:05:55.720Z,17.34
2023-05-19T16:08:22.636Z,17.34
2023-05-19T16:10:49.252Z,17.31
2023-05-19T16:13:15.865Z,17.21
2023-05-19T16:15:42.496Z,17.16
2023-05-19T16:18:09.437Z,17.07
2023-05-19T16:20:36.192Z,17.18
2023-05-19T16:23:03.732Z,17.16
2023-05-19T16:25:31.210Z,16.85
2023-05-19T16:28:04.676Z,17.13
2023-05-19T16:30:31.459Z,17.04
2023-05-19T16:32:58.353Z,17.08
2023-05-19T16:35:28.394Z,16.99
2023-05-19T16:37:58.356Z,16.93
2023-05-19T16:40:25.348Z,16.91
2023-05-19T16:42:55.189Z,16.93
2023-05-19T16:45:21.934Z,16.92
2023-05-19T16:47:48.468Z,16.92
2023-05-19T16:50:16.429Z,16.88
2023-05-19T16:52:43.477Z,16.83
2023-05-19T16:55:11.037Z,16.74
2023-05-19T16:57:37.677Z,16.79
2023-05-19T17:02:55.595Z,16.73
2023-05-19T17:05:22.151Z,16.75
2023-05-19T17:07:49.551Z,16.80
2023-05-19T17:10:16.271Z,16.73
2023-05-19T17:12:43.162Z,16.74
2023-05-19T17:15:10.004Z,16.75
2023-05-19T17:17:36.921Z,16.77
2023-05-19T17:20:06.194Z,16.74
2023-05-19T17:22:33.298Z,16.69
2023-05-19T17:25:00.177Z,16.70
2023-05-19T17:27:26.825Z,16.70
2023-05-19T17:29:53.394Z,16.65
2023-05-19T17:32:25.708Z,16.65
2023-05-19T17:34:52.558Z,16.67
2023-05-19T17:37:19.634Z,16.71
2023-05-19T17:39:48.600Z,16.65
2023-05-19T17:42:15.806Z,16.68
2023-05-19T17:44:42.399Z,16.74
2023-05-19T17:47:10.788Z,16.58
2023-05-19T17:49:37.714Z,16.75
2023-05-19T17:52:04.689Z,16.73
2023-05-19T17:54:34.528Z,16.41
2023-05-19T17:57:03.776Z,16.72
2023-05-19T17:59:30.904Z,16.66
2023-05-19T18:02:01.182Z,16.38
2023-05-19T18:04:28.229Z,16.61
2023-05-19T18:06:56.049Z,16.60
2023-05-19T18:09:23.365Z,16.60
2023-05-19T18:11:50.021Z,16.61
2023-05-19T18:14:16.698Z,16.62
2023-05-19T18:16:47.526Z,16.58
2023-05-19T18:19:14.696Z,16.55
2023-05-19T18:21:44.702Z,16.10
2023-05-19T18:24:11.639Z,16.57
2023-05-19T18:26:42.218Z,16.54
2023-05-19T18:29:09.973Z,16.55
2023-05-19T18:31:36.934Z,16.57
2023-05-19T18:34:04.949Z,16.31
2023-05-19T18:36:31.767Z,16.55
2023-05-19T18:39:04.735Z,16.56
2023-05-19T18:41:32.139Z,16.56
2023-05-19T18:44:01.731Z,16.57
2023-05-19T18:46:28.404Z,16.60
2023-05-19T18:48:55.226Z,16.58
2023-05-19T18:51:22.579Z,16.58
2023-05-19T18:53:50.306Z,16.53
2023-05-19T18:56:23.650Z,16.50
2023-05-19T18:58:58.538Z,15.97
2023-05-19T19:01:38.042Z,16.57
2023-05-19T19:04:16.876Z,16.54
2023-05-19T19:06:48.890Z,16.23
2023-05-19T19:09:19.952Z,16.52
2023-05-19T19:11:48.786Z,16.51
2023-05-19T19:14:15.521Z,16.44
2023-05-19T19:16:45.359Z,16.42
2023-05-19T19:19:15.778Z,16.10
2023-05-19T19:21:44.854Z,16.39
2023-05-19T19:24:11.496Z,16.39
2023-05-19T19:26:45.115Z,16.42
2023-05-19T19:29:13.930Z,16.42
2023-05-19T19:31:48.350Z,16.41
2023-05-19T19:34:15.083Z,16.41
2023-05-19T19:36:46.218Z,16.42
2023-05-19T19:39:13.708Z,16.13
2023-05-19T19:41:46.624Z,16.40
2023-05-19T19:44:14.117Z,16.38
2023-05-19T19:46:40.900Z,16.38
2023-05-19T19:49:10.320Z,16.37
2023-05-19T19:51:37.189Z,16.37
2023-05-19T19:54:12.187Z,16.37
2023-05-19T19:56:38.881Z,16.32
2023-05-19T19:59:05.759Z,16.30
2023-05-19T20:01:33.851Z,16.30
2023-05-19T20:04:01.246Z,16.31
2023-05-19T20:06:28.492Z,16.27
2023-05-19T20:08:55.399Z,16.25
2023-05-19T20:11:25.427Z,15.96
2023-05-19T20:13:52.362Z,16.26
2023-05-19T20:16:19.246Z,16.25
2023-05-19T20:18:48.238Z,16.24
2023-05-19T20:21:15.678Z,16.20
2023-05-19T20:23:42.522Z,16.22
2023-05-19T20:26:13.099Z,16.22
2023-05-19T20:28:44.822Z,15.95
2023-05-19T20:31:11.430Z,16.22
2023-05-19T20:33:38.159Z,16.21
2023-05-19T20:36:16.029Z,15.97
2023-05-19T20:38:42.682Z,16.17
2023-05-19T20:41:17.188Z,16.16
2023-05-19T20:43:44.478Z,16.14
2023-05-19T20:46:13.954Z,16.11
2023-05-19T20:48:40.641Z,16.10
2023-05-19T20:51:07.280Z,16.07
2023-05-19T20:53:34.690Z,16.09
2023-05-19T20:56:01.257Z,16.11
2023-05-19T20:58:30.354Z,16.10
2023-05-19T21:01:00.692Z,15.78
2023-05-19T21:03:28.708Z,16.08
2023-05-19T21:05:55.735Z,16.07
2023-05-19T21:08:22.753Z,16.07
2023-05-19T21:10:57.177Z,16.07
2023-05-19T21:13:24.784Z,16.07
2023-05-19T21:15:51.390Z,16.06
2023-05-19T21:18:18.050Z,16.06
2023-05-19T21:20:46.098Z,16.06
2023-05-19T21:23:18.829Z,16.06
2023-05-19T21:25:46.159Z,16.06
2023-05-19T21:28:12.820Z,16.03
2023-05-19T21:30:42.789Z,15.78
2023-05-19T21:33:09.562Z,16.02
2023-05-19T21:35:39.449Z,16.00
2023-05-19T21:38:22.176Z,15.99
2023-05-19T21:40:50.622Z,15.97
2023-05-19T21:43:17.304Z,15.95
2023-05-19T21:45:43.821Z,15.98
2023-05-19T21:48:11.611Z,15.97
2023-05-19T21:50:38.652Z,15.95
2023-05-19T21:53:05.879Z,15.97
2023-05-19T21:55:37.842Z,16.00
2023-05-19T21:58:04.511Z,16.02
2023-05-19T22:00:36.830Z,16.00
2023-05-19T22:03:03.847Z,15.97
2023-05-19T22:05:33.209Z,15.97
2023-05-19T22:08:02.417Z,15.91
2023-05-19T22:10:29.187Z,15.91
2023-05-19T22:12:57.582Z,15.91
2023-05-19T22:15:24.215Z,15.91
2023-05-19T22:17:51.334Z,15.93
2023-05-19T22:20:19.305Z,15.95
2023-05-19T22:22:46.222Z,15.95
2023-05-19T22:25:17.608Z,15.62
2023-05-19T22:27:50.009Z,15.85
2023-05-19T22:30:22.636Z,15.87
2023-05-19T22:32:52.134Z,15.89
2023-05-19T22:35:21.053Z,15.87
2023-05-19T22:37:50.978Z,15.89
2023-05-19T22:40:17.977Z,15.85
2023-05-19T22:42:44.606Z,15.82
2023-05-19T22:45:11.726Z,15.86
2023-05-19T22:47:38.417Z,15.85
2023-05-19T22:50:05.294Z,15.87
2023-05-19T22:52:36.632Z,15.86
2023-05-19T22:55:04.040Z,15.83
2023-05-19T22:57:34.329Z,15.86
2023-05-19T23:00:04.559Z,15.87
2023-05-19T23:02:31.165Z,15.82
2023-05-19T23:05:08.280Z,15.85
2023-05-19T23:07:44.299Z,15.81
2023-05-19T23:10:11.107Z,15.87
2023-05-19T23:12:41.598Z,15.81
2023-05-19T23:15:12.557Z,15.77
2023-05-19T23:17:39.334Z,15.79
2023-05-19T23:20:06.223Z,15.79
2023-05-19T23:22:32.867Z,15.78
2023-05-19T23:25:02.045Z,15.81
2023-05-19T23:27:33.895Z,15.80
2023-05-19T23:30:00.516Z,15.82
2023-05-19T23:32:27.699Z,15.79
2023-05-19T23:34:54.346Z,15.81
2023-05-19T23:37:20.860Z,15.86
2023-05-19T23:39:47.433Z,15.78
2023-05-19T23:42:14.214Z,15.73
2023-05-19T23:44:41.212Z,15.75
2023-05-19T23:47:08.047Z,15.73
2023-05-19T23:49:34.694Z,15.73
2023-05-19T23:52:01.524Z,15.73
2023-05-19T23:54:30.360Z,15.69
2023-05-19T23:56:56.953Z,15.69
2023-05-19T23:59:24.649Z,15.72
